Prudentia — PB4900 — position and weather

sailwx.info

Track history (hours):
 
Tides and Currents Weather Stations Pressure Air Temp Water Temp Dewpoint Dewpoint Depression Visibility Wind Speed Wind Dir Waves Ship Positions

Prudentia

Last reported at 2017-Oct-19 03:22 UTC. Time now 2017-Oct-19 03:56 UTC.
Position N 51°37' E 005°30'.

Length 70 m; draft 1.8 m.

Type: Ship. MMSI: 244660779.

Date/timePositionNaut miles runAvg speedWind from/ knotsBaromVisibWave heightAir tempDewpointWater temp
2017-Oct-19 03:22N 51°37' E 005°30'0 0.0
2017-Oct-19 03:00N 51°37' E 005°30'0 0.0
2017-Oct-18 23:22N 51°37' E 005°30'0 0.0
2017-Oct-18 22:35N 51°37' E 005°30'0 0.0
2017-Oct-18 22:12N 51°37' E 005°30'0 0.0
2017-Oct-18 21:58N 51°37' E 005°30'0 0.0
2017-Oct-18 21:21N 51°37' E 005°30'0 0.0
2017-Oct-18 20:46N 51°37' E 005°30'3 0.2
2017-Oct-18 04:51N 51°39' E 005°26'0 0.0
2017-Oct-18 04:30N 51°39' E 005°26'0 0.0
2017-Oct-18 00:58N 51°39' E 005°26'0 0.0
2017-Oct-18 00:28N 51°39' E 005°26'0 0.0
2017-Oct-18 00:00N 51°39' E 005°26'0 0.0
2017-Oct-17 23:25N 51°39' E 005°26'0 0.0
2017-Oct-17 22:06N 51°39' E 005°26'0 0.0
2017-Oct-17 21:55N 51°39' E 005°26'0 0.0
2017-Oct-17 21:29N 51°39' E 005°26'0 0.0
2017-Oct-17 21:00N 51°39' E 005°26'0 0.0
2017-Oct-17 20:26N 51°39' E 005°26'0 0.0
2017-Oct-17 16:38N 51°39' E 005°26'0 0.0
2017-Oct-17 16:23N 51°39' E 005°26'0 0.0
2017-Oct-17 15:59N 51°39' E 005°26'0 0.0
2017-Oct-17 15:17N 51°39' E 005°26'0 0.0
2017-Oct-17 09:09N 51°39' E 005°26'0 0.0
2017-Oct-17 08:56N 51°39' E 005°26'0 0.0
2017-Oct-17 01:07N 51°39' E 005°26'10 0.6
2017-Oct-16 07:23N 51°48' E 005°21'4 9.4
2017-Oct-16 06:57N 51°51' E 005°25'6 8.7
2017-Oct-16 06:13N 51°54' E 005°34'2 9.2
2017-Oct-16 05:59N 51°54' E 005°38'4 9.3
2017-Oct-16 05:30N 51°53' E 005°45'5 9.0
2017-Oct-16 05:00N 51°51' E 005°52'3 6.9
2017-Oct-16 04:30N 51°52' E 005°57'3 6.8
2017-Oct-16 04:00N 51°52' E 006°02'4 8.8
2017-Oct-16 03:30N 51°51' E 006°09'4 7.6
2017-Oct-16 03:00N 51°50' E 006°15'0 0.1
2017-Oct-16 02:30N 51°50' E 006°15'0 0.0
2017-Oct-16 02:00N 51°50' E 006°15'0 0.0
2017-Oct-16 01:30N 51°50' E 006°15'0 0.0
2017-Oct-16 01:00N 51°50' E 006°15'0 0.0
2017-Oct-16 00:30N 51°50' E 006°15'0 0.0
2017-Oct-16 00:00N 51°50' E 006°15'0 0.0
2017-Oct-15 23:30N 51°50' E 006°15'0 0.0
2017-Oct-15 23:00N 51°50' E 006°15'0 0.0
2017-Oct-15 22:30N 51°50' E 006°15'0 0.0
2017-Oct-15 22:00N 51°50' E 006°15'0 0.0
2017-Oct-15 21:30N 51°50' E 006°15'0 0.0
2017-Oct-15 21:00N 51°50' E 006°15'0 0.0
2017-Oct-15 20:30N 51°50' E 006°15'0 0.0
2017-Oct-15 20:00N 51°50' E 006°15'0 0.0
2017-Oct-15 19:30N 51°50' E 006°15'0 0.0
2017-Oct-15 19:00N 51°50' E 006°15'0 0.0
2017-Oct-15 18:30N 51°50' E 006°15'0 0.3
2017-Oct-15 18:00N 51°50' E 006°15'0 0.1
2017-Oct-15 17:30N 51°50' E 006°15'4 8.3
2017-Oct-15 17:00N 51°47' E 006°19'4 8.4
2017-Oct-15 16:30N 51°44' E 006°25'4 7.8
2017-Oct-15 16:00N 51°41' E 006°28'4 8.7
2017-Oct-15 15:30N 51°40' E 006°35'4 8.4
2017-Oct-15 15:00N 51°35' E 006°36'7 7.1
2017-Oct-15 14:00N 51°30' E 006°43'3 5.8
2017-Oct-15 13:30N 51°27' E 006°43'4 8.5
2017-Oct-15 13:00N 51°23' E 006°44'6 6.1
2017-Oct-15 11:59N 51°17' E 006°42'4 8.6
2017-Oct-15 11:30N 51°13' E 006°46'3 5.1
2017-Oct-15 11:00N 51°11' E 006°45'3 6.6
2017-Oct-15 10:30N 51°09' E 006°49'12 6.8
2017-Oct-15 08:40N 50°58' E 007°00'2 9.2
2017-Oct-15 08:29N 50°57' E 006°58'4 7.8
2017-Oct-15 07:57N 50°54' E 007°02'  
2017-Oct-09 07:48N 50°42' E 007°10'2 5.4
2017-Oct-09 07:29N 50°43' E 007°08'2 5.3
2017-Oct-09 07:00N 50°45' E 007°06'3 5.6
2017-Oct-09 06:27N 50°47' E 007°02'3 5.0
2017-Oct-09 05:56N 50°49' E 007°00'2 3.3
2017-Oct-09 05:27N 50°51' E 006°60'3 5.2
2017-Oct-09 04:55N 50°53' E 007°03'2 4.4
2017-Oct-09 04:28N 50°54' E 007°00'  
Track history (hours):
 
Tides and Currents Weather Stations Pressure Air Temp Water Temp Dewpoint Dewpoint Depression Visibility Wind Speed Wind Dir Waves Ship Positions

Prudentia

Last reported at 2017-Oct-19 03:22 UTC. Time now 2017-Oct-19 03:56 UTC.
Position N 51°37' E 005°30'.

Length 70 m; draft 1.8 m.

Type: Ship. MMSI: 244660779.

Date/timePositionNaut miles runAvg speedWind from/ knotsBaromVisibWave heightAir tempDewpointWater temp
2017-Oct-19 03:22N 51°37' E 005°30'0 0.0
2017-Oct-19 03:00N 51°37' E 005°30'0 0.0
2017-Oct-18 23:22N 51°37' E 005°30'0 0.0
2017-Oct-18 22:35N 51°37' E 005°30'0 0.0
2017-Oct-18 22:12N 51°37' E 005°30'0 0.0
2017-Oct-18 21:58N 51°37' E 005°30'0 0.0
2017-Oct-18 21:21N 51°37' E 005°30'0 0.0
2017-Oct-18 20:46N 51°37' E 005°30'3 0.2
2017-Oct-18 04:51N 51°39' E 005°26'0 0.0
2017-Oct-18 04:30N 51°39' E 005°26'0 0.0
2017-Oct-18 00:58N 51°39' E 005°26'0 0.0
2017-Oct-18 00:28N 51°39' E 005°26'0 0.0
2017-Oct-18 00:00N 51°39' E 005°26'0 0.0
2017-Oct-17 23:25N 51°39' E 005°26'0 0.0
2017-Oct-17 22:06N 51°39' E 005°26'0 0.0
2017-Oct-17 21:55N 51°39' E 005°26'0 0.0
2017-Oct-17 21:29N 51°39' E 005°26'0 0.0
2017-Oct-17 21:00N 51°39' E 005°26'0 0.0
2017-Oct-17 20:26N 51°39' E 005°26'0 0.0
2017-Oct-17 16:38N 51°39' E 005°26'0 0.0
2017-Oct-17 16:23N 51°39' E 005°26'0 0.0
2017-Oct-17 15:59N 51°39' E 005°26'0 0.0
2017-Oct-17 15:17N 51°39' E 005°26'0 0.0
2017-Oct-17 09:09N 51°39' E 005°26'0 0.0
2017-Oct-17 08:56N 51°39' E 005°26'0 0.0
2017-Oct-17 01:07N 51°39' E 005°26'10 0.6
2017-Oct-16 07:23N 51°48' E 005°21'4 9.4
2017-Oct-16 06:57N 51°51' E 005°25'6 8.7
2017-Oct-16 06:13N 51°54' E 005°34'2 9.2
2017-Oct-16 05:59N 51°54' E 005°38'4 9.3
2017-Oct-16 05:30N 51°53' E 005°45'5 9.0
2017-Oct-16 05:00N 51°51' E 005°52'3 6.9
2017-Oct-16 04:30N 51°52' E 005°57'3 6.8
2017-Oct-16 04:00N 51°52' E 006°02'4 8.8
2017-Oct-16 03:30N 51°51' E 006°09'4 7.6
2017-Oct-16 03:00N 51°50' E 006°15'0 0.1
2017-Oct-16 02:30N 51°50' E 006°15'0 0.0
2017-Oct-16 02:00N 51°50' E 006°15'0 0.0
2017-Oct-16 01:30N 51°50' E 006°15'0 0.0
2017-Oct-16 01:00N 51°50' E 006°15'0 0.0
2017-Oct-16 00:30N 51°50' E 006°15'0 0.0
2017-Oct-16 00:00N 51°50' E 006°15'0 0.0
2017-Oct-15 23:30N 51°50' E 006°15'0 0.0
2017-Oct-15 23:00N 51°50' E 006°15'0 0.0
2017-Oct-15 22:30N 51°50' E 006°15'0 0.0
2017-Oct-15 22:00N 51°50' E 006°15'0 0.0
2017-Oct-15 21:30N 51°50' E 006°15'0 0.0
2017-Oct-15 21:00N 51°50' E 006°15'0 0.0
2017-Oct-15 20:30N 51°50' E 006°15'0 0.0
2017-Oct-15 20:00N 51°50' E 006°15'0 0.0
2017-Oct-15 19:30N 51°50' E 006°15'0 0.0
2017-Oct-15 19:00N 51°50' E 006°15'0 0.0
2017-Oct-15 18:30N 51°50' E 006°15'0 0.3
2017-Oct-15 18:00N 51°50' E 006°15'0 0.1
2017-Oct-15 17:30N 51°50' E 006°15'4 8.3
2017-Oct-15 17:00N 51°47' E 006°19'4 8.4
2017-Oct-15 16:30N 51°44' E 006°25'4 7.8
2017-Oct-15 16:00N 51°41' E 006°28'4 8.7
2017-Oct-15 15:30N 51°40' E 006°35'4 8.4
2017-Oct-15 15:00N 51°35' E 006°36'7 7.1
2017-Oct-15 14:00N 51°30' E 006°43'3 5.8
2017-Oct-15 13:30N 51°27' E 006°43'4 8.5
2017-Oct-15 13:00N 51°23' E 006°44'6 6.1
2017-Oct-15 11:59N 51°17' E 006°42'4 8.6
2017-Oct-15 11:30N 51°13' E 006°46'3 5.1
2017-Oct-15 11:00N 51°11' E 006°45'3 6.6
2017-Oct-15 10:30N 51°09' E 006°49'12 6.8
2017-Oct-15 08:40N 50°58' E 007°00'2 9.2
2017-Oct-15 08:29N 50°57' E 006°58'4 7.8
2017-Oct-15 07:57N 50°54' E 007°02'  
2017-Oct-09 07:48N 50°42' E 007°10'2 5.4
2017-Oct-09 07:29N 50°43' E 007°08'2 5.3
2017-Oct-09 07:00N 50°45' E 007°06'3 5.6
2017-Oct-09 06:27N 50°47' E 007°02'3 5.0
2017-Oct-09 05:56N 50°49' E 007°00'2 3.3
2017-Oct-09 05:27N 50°51' E 006°60'3 5.2
2017-Oct-09 04:55N 50°53' E 007°03'2 4.4
2017-Oct-09 04:28N 50°54' E 007°00'  

Dump ship's entire track history